Time;durP1;ratioP1;P1;durP2;ratioP2;P2;SDS_P1;SDS_P2;PMS_P1;PMS_P2;Temp;Humidity;BMP_temperature;BMP_pressure;BME280_temperature;BME280_humidity;BME280_pressure;Samples;Min_cycle;Max_cycle;Signal;HPM_P1;HPM_P2
2021/07/09 00:00:35;;;;;;;;;;;24.60;52.60;;;;;;1544760;75;1657;-63
2021/07/09 00:02:37;;;;;;;;;;;24.70;52.70;;;;;;1541647;75;1145;-63
2021/07/09 00:04:38;;;;;;;;;;;24.60;52.60;;;;;;1541130;75;762;-64
2021/07/09 00:06:40;;;;;;;;;;;24.60;52.50;;;;;;1545119;75;809;-68
2021/07/09 00:08:42;;;;;;;;;;;24.70;52.60;;;;;;1543230;75;746;-68
2021/07/09 00:10:44;;;;;;;;;;;24.70;52.60;;;;;;1550723;75;735;-72
2021/07/09 00:12:46;;;;;;;;;;;24.70;52.70;;;;;;1546706;75;1961;-66
2021/07/09 00:14:48;;;;;;;;;;;24.60;52.50;;;;;;1551307;75;774;-65
2021/07/09 00:16:50;;;;;;;;;;;24.70;52.70;;;;;;1548904;75;820;-64
2021/07/09 00:18:52;;;;;;;;;;;24.70;52.60;;;;;;1544336;75;695;-65
2021/07/09 00:20:54;;;;;;;;;;;24.70;52.60;;;;;;1550777;75;759;-64
2021/07/09 00:22:56;;;;;;;;;;;24.70;52.60;;;;;;1547635;75;1143;-64
2021/07/09 00:24:58;;;;;;;;;;;24.70;52.50;;;;;;1550234;75;701;-67
2021/07/09 00:27:03;;;;;;;;;;;24.70;52.50;;;;;;1546655;75;734;-68
2021/07/09 00:29:03;;;;;;;;;;;24.70;52.30;;;;;;1546567;75;1658;-64
2021/07/09 00:31:05;;;;;;;;;;;24.70;52.30;;;;;;1548942;75;769;-62
2021/07/09 00:33:07;;;;;;;;;;;24.60;52.20;;;;;;1537471;75;1944;-63
2021/07/09 00:35:09;;;;;;;;;;;24.70;52.30;;;;;;1544944;75;717;-62
2021/07/09 00:37:11;;;;;;;;;;;24.70;52.30;;;;;;1545433;75;725;-63
2021/07/09 00:39:13;;;;;;;;;;;24.70;52.30;;;;;;1536104;75;741;-64
2021/07/09 00:41:15;;;;;;;;;;;24.70;52.30;;;;;;1549392;75;1127;-67
2021/07/09 00:43:17;;;;;;;;;;;24.70;52.20;;;;;;1539994;75;789;-65
2021/07/09 00:45:19;;;;;;;;;;;24.70;52.30;;;;;;1537996;75;765;-68
2021/07/09 00:47:21;;;;;;;;;;;24.70;52.30;;;;;;1542856;75;744;-64
2021/07/09 00:49:23;;;;;;;;;;;24.70;52.30;;;;;;1533225;75;752;-65
2021/07/09 00:51:25;;;;;;;;;;;24.60;52.10;;;;;;1535765;75;1122;-64
2021/07/09 00:53:27;;;;;;;;;;;24.70;52.20;;;;;;1519452;73;220947;-70
2021/07/09 00:55:28;;;;;;;;;;;24.70;52.40;;;;;;1514205;77;729;-72
2021/07/09 00:57:30;;;;;;;;;;;24.70;52.30;;;;;;1508036;76;714;-72
2021/07/09 00:59:32;;;;;;;;;;;24.70;52.20;;;;;;1507772;76;775;-71
2021/07/09 01:01:34;;;;;;;;;;;24.70;52.20;;;;;;1513493;75;1190;-71
2021/07/09 01:03:36;;;;;;;;;;;24.70;52.10;;;;;;1526647;75;725;-72
2021/07/09 01:05:38;;;;;;;;;;;24.60;52.10;;;;;;1526562;76;721;-71
2021/07/09 01:07:40;;;;;;;;;;;24.70;52.10;;;;;;1528664;75;740;-72
2021/07/09 01:09:41;;;;;;;;;;;24.60;51.90;;;;;;1535524;75;921;-70
2021/07/09 01:11:45;;;;;;;;;;;24.60;52.00;;;;;;1529741;75;1121;-70
2021/07/09 01:13:47;;;;;;;;;;;24.60;51.90;;;;;;1533127;75;1926;-70
2021/07/09 01:15:48;;;;;;;;;;;24.60;51.90;;;;;;1533910;75;798;-71
2021/07/09 01:17:50;;;;;;;;;;;24.60;51.90;;;;;;1533896;76;751;-70
2021/07/09 01:19:52;;;;;;;;;;;24.60;52.00;;;;;;1529924;75;760;-73
2021/07/09 01:21:55;;;;;;;;;;;24.60;52.00;;;;;;1529580;75;1120;-70
2021/07/09 01:23:57;;;;;;;;;;;24.60;51.90;;;;;;1528536;76;734;-71
2021/07/09 01:25:59;;;;;;;;;;;24.60;51.90;;;;;;1528872;75;781;-72
2021/07/09 01:28:05;;;;;;;;;;;24.60;51.80;;;;;;1533097;76;840;-71
2021/07/09 01:30:08;;;;;;;;;;;24.60;51.80;;;;;;1531414;76;775;-70
2021/07/09 01:32:10;;;;;;;;;;;24.60;51.80;;;;;;1536347;76;1121;-71
2021/07/09 01:34:11;;;;;;;;;;;24.60;51.80;;;;;;1533061;75;1943;-70
2021/07/09 01:36:13;;;;;;;;;;;24.60;51.70;;;;;;1516496;76;758;-70
2021/07/09 01:38:15;;;;;;;;;;;24.70;51.80;;;;;;1506703;77;786;-69
2021/07/09 01:40:17;;;;;;;;;;;24.60;51.60;;;;;;1520059;76;700;-70
2021/07/09 01:42:19;;;;;;;;;;;24.60;51.70;;;;;;1524110;76;1129;-72
2021/07/09 01:44:21;;;;;;;;;;;24.60;51.60;;;;;;1521801;75;743;-73
2021/07/09 01:46:23;;;;;;;;;;;24.60;51.70;;;;;;1533279;75;656;-70
2021/07/09 01:48:25;;;;;;;;;;;24.70;51.80;;;;;;1526905;76;732;-70
2021/07/09 01:50:27;;;;;;;;;;;24.70;51.80;;;;;;1528943;75;807;-71
2021/07/09 01:52:29;;;;;;;;;;;24.70;51.80;;;;;;1528334;75;1133;-68
2021/07/09 01:54:31;;;;;;;;;;;24.60;51.60;;;;;;1525729;75;1935;-72
2021/07/09 01:56:32;;;;;;;;;;;24.60;51.40;;;;;;1531274;75;762;-71
2021/07/09 01:58:34;;;;;;;;;;;24.60;51.40;;;;;;1531964;75;785;-72
2021/07/09 02:00:36;;;;;;;;;;;24.60;51.50;;;;;;1528987;75;751;-73
2021/07/09 02:02:40;;;;;;;;;;;24.60;51.60;;;;;;1528610;75;1148;-73
2021/07/09 02:04:45;;;;;;;;;;;24.60;51.60;;;;;;1539214;75;993;-73
2021/07/09 02:06:47;;;;;;;;;;;24.60;51.60;;;;;;1557494;74;818;-72
2021/07/09 02:08:49;;;;;;;;;;;24.60;51.50;;;;;;1546583;75;730;-72
2021/07/09 02:10:51;;;;;;;;;;;24.50;51.50;;;;;;1545540;75;1382;-72
2021/07/09 02:12:54;;;;;;;;;;;24.60;51.40;;;;;;1534056;75;1969;-72
2021/07/09 02:14:56;;;;;;;;;;;24.60;51.40;;;;;;1543606;75;763;-72
2021/07/09 02:16:58;;;;;;;;;;;24.50;51.40;;;;;;1544912;74;752;-71
2021/07/09 02:19:00;;;;;;;;;;;24.50;51.30;;;;;;1546533;76;728;-71
2021/07/09 02:21:02;;;;;;;;;;;24.60;51.40;;;;;;1536400;74;741;-71
2021/07/09 02:23:05;;;;;;;;;;;24.50;51.20;;;;;;1511615;76;1126;-71
2021/07/09 02:25:07;;;;;;;;;;;24.50;51.20;;;;;;1547649;75;1790;-71
2021/07/09 02:27:09;;;;;;;;;;;24.60;51.20;;;;;;1555659;74;734;-72
2021/07/09 02:29:11;;;;;;;;;;;24.50;51.00;;;;;;1553676;76;811;-71
2021/07/09 02:31:13;;;;;;;;;;;24.50;51.20;;;;;;1546963;75;744;-71
2021/07/09 02:33:15;;;;;;;;;;;24.60;51.10;;;;;;1537185;75;1955;-71
2021/07/09 02:35:17;;;;;;;;;;;24.50;51.10;;;;;;1541565;76;737;-72
2021/07/09 02:37:19;;;;;;;;;;;24.50;51.00;;;;;;1543601;76;806;-71
2021/07/09 02:39:21;;;;;;;;;;;24.50;50.90;;;;;;1547090;74;743;-71
2021/07/09 02:41:23;;;;;;;;;;;24.50;50.80;;;;;;1543304;75;662;-71
2021/07/09 02:43:25;;;;;;;;;;;24.50;50.90;;;;;;1546246;74;811;-71
2021/07/09 02:45:27;;;;;;;;;;;24.50;50.70;;;;;;1546928;75;832;-70
2021/07/09 02:47:29;;;;;;;;;;;24.50;50.80;;;;;;1541748;75;765;-71
2021/07/09 02:49:31;;;;;;;;;;;24.50;50.70;;;;;;1542132;75;838;-71
2021/07/09 02:51:33;;;;;;;;;;;24.50;50.70;;;;;;1540362;76;1129;-73
2021/07/09 02:53:35;;;;;;;;;;;24.50;50.60;;;;;;1540774;75;1940;-74
2021/07/09 02:55:36;;;;;;;;;;;24.50;50.70;;;;;;1538749;75;748;-70
2021/07/09 02:57:41;;;;;;;;;;;24.50;50.70;;;;;;1543444;75;799;-69
2021/07/09 02:59:42;;;;;;;;;;;24.50;50.80;;;;;;1547827;75;1688;-68
2021/07/09 03:01:44;;;;;;;;;;;24.50;50.80;;;;;;1546573;76;1215;-70
2021/07/09 03:03:46;;;;;;;;;;;24.40;50.80;;;;;;1546943;76;779;-71
2021/07/09 03:05:47;;;;;;;;;;;24.50;51.00;;;;;;1541367;74;680;-72
2021/07/09 03:07:49;;;;;;;;;;;24.50;51.00;;;;;;1547629;74;802;-73
2021/07/09 03:09:51;;;;;;;;;;;24.40;51.00;;;;;;1549442;75;749;-69
2021/07/09 03:11:53;;;;;;;;;;;24.40;51.00;;;;;;1550359;76;1161;-69
2021/07/09 03:13:55;;;;;;;;;;;24.50;51.10;;;;;;1538215;75;1941;-70
2021/07/09 03:15:57;;;;;;;;;;;24.50;51.20;;;;;;1555693;75;761;-70
2021/07/09 03:17:59;;;;;;;;;;;24.50;51.30;;;;;;1550210;76;767;-68
2021/07/09 03:20:01;;;;;;;;;;;24.50;51.20;;;;;;1543816;75;670;-68
2021/07/09 03:22:03;;;;;;;;;;;24.50;51.20;;;;;;1545548;75;1193;-70
2021/07/09 03:24:05;;;;;;;;;;;24.60;51.30;;;;;;1554929;75;803;-67
2021/07/09 03:26:07;;;;;;;;;;;24.50;51.30;;;;;;1540690;76;791;-69
2021/07/09 03:28:09;;;;;;;;;;;24.50;51.30;;;;;;1560467;74;736;-69
2021/07/09 03:30:12;;;;;;;;;;;24.50;51.30;;;;;;1558515;74;801;-69
2021/07/09 03:32:13;;;;;;;;;;;24.50;51.30;;;;;;1557227;75;1149;-69
2021/07/09 03:34:15;;;;;;;;;;;24.50;51.30;;;;;;1544205;76;1936;-68
2021/07/09 03:36:17;;;;;;;;;;;24.50;51.30;;;;;;1560728;75;822;-69
2021/07/09 03:38:20;;;;;;;;;;;24.50;51.30;;;;;;1556224;74;826;-68
2021/07/09 03:40:22;;;;;;;;;;;24.60;51.30;;;;;;1558588;74;771;-69
2021/07/09 03:42:23;;;;;;;;;;;24.50;51.40;;;;;;1554128;74;1230;-70
2021/07/09 03:44:25;;;;;;;;;;;24.50;51.40;;;;;;1548242;74;730;-69
2021/07/09 03:46:27;;;;;;;;;;;24.50;51.40;;;;;;1560840;75;714;-69
2021/07/09 03:48:30;;;;;;;;;;;24.50;51.30;;;;;;1576448;74;819;-68
2021/07/09 03:50:32;;;;;;;;;;;24.50;51.40;;;;;;1560000;75;1135;-69
2021/07/09 03:52:34;;;;;;;;;;;24.50;51.40;;;;;;1551642;75;1150;-69
2021/07/09 03:54:36;;;;;;;;;;;24.50;51.50;;;;;;1563210;75;1931;-69
2021/07/09 03:56:38;;;;;;;;;;;24.50;51.50;;;;;;1543378;75;753;-70
2021/07/09 03:58:40;;;;;;;;;;;24.60;51.60;;;;;;1546372;76;933;-70
2021/07/09 04:00:42;;;;;;;;;;;24.60;51.60;;;;;;1549935;76;771;-69
2021/07/09 04:02:44;;;;;;;;;;;24.50;51.50;;;;;;1546795;76;1154;-69
2021/07/09 04:04:46;;;;;;;;;;;24.50;51.60;;;;;;1552905;76;737;-70
2021/07/09 04:06:48;;;;;;;;;;;24.50;51.60;;;;;;1563946;75;802;-69
2021/07/09 04:08:50;;;;;;;;;;;24.50;51.50;;;;;;1544858;74;782;-68
2021/07/09 04:10:52;;;;;;;;;;;24.50;51.50;;;;;;1552397;75;756;-70
2021/07/09 04:12:53;;;;;;;;;;;24.50;51.50;;;;;;1551496;75;1177;-70
2021/07/09 04:14:55;;;;;;;;;;;24.50;51.50;;;;;;1562175;75;1944;-70
2021/07/09 04:16:57;;;;;;;;;;;24.60;51.60;;;;;;1555670;75;790;-69
2021/07/09 04:18:59;;;;;;;;;;;24.50;51.60;;;;;;1540693;75;777;-70
2021/07/09 04:21:01;;;;;;;;;;;24.50;51.60;;;;;;1553857;76;772;-68
2021/07/09 04:23:03;;;;;;;;;;;24.50;51.50;;;;;;1547885;75;1151;-68
2021/07/09 04:25:07;;;;;;;;;;;24.60;51.50;;;;;;1561409;75;803;-64
2021/07/09 04:27:10;;;;;;;;;;;24.50;51.50;;;;;;1557561;75;775;-71
2021/07/09 04:29:11;;;;;;;;;;;24.50;51.60;;;;;;1551791;75;768;-69
2021/07/09 04:31:13;;;;;;;;;;;24.50;51.60;;;;;;1562874;75;760;-70
2021/07/09 04:33:15;;;;;;;;;;;24.50;51.60;;;;;;1554078;75;1079;-68
2021/07/09 04:35:17;;;;;;;;;;;24.60;51.60;;;;;;1559670;75;1923;-68
2021/07/09 04:37:19;;;;;;;;;;;24.50;51.60;;;;;;1564660;75;792;-68
2021/07/09 04:39:21;;;;;;;;;;;24.50;51.50;;;;;;1546465;76;797;-70
2021/07/09 04:41:23;;;;;;;;;;;24.50;51.50;;;;;;1551840;74;823;-70
2021/07/09 04:43:25;;;;;;;;;;;24.50;51.50;;;;;;1559480;75;732;-66
2021/07/09 04:45:27;;;;;;;;;;;24.50;51.50;;;;;;1552537;75;780;-68
2021/07/09 04:47:29;;;;;;;;;;;24.50;51.50;;;;;;1555845;75;882;-70
2021/07/09 04:49:31;;;;;;;;;;;24.50;51.50;;;;;;1556108;75;809;-70
2021/07/09 04:51:32;;;;;;;;;;;24.50;51.50;;;;;;1544465;76;1196;-71
2021/07/09 04:53:34;;;;;;;;;;;24.50;51.50;;;;;;1547206;74;937;-69
2021/07/09 04:55:36;;;;;;;;;;;24.50;51.50;;;;;;1558707;74;1943;-70
2021/07/09 04:57:38;;;;;;;;;;;24.50;51.50;;;;;;1543639;74;795;-68
2021/07/09 04:59:40;;;;;;;;;;;24.50;51.50;;;;;;1545132;75;750;-68
2021/07/09 05:01:42;;;;;;;;;;;24.50;51.50;;;;;;1545275;75;1148;-70
2021/07/09 05:03:44;;;;;;;;;;;24.50;51.60;;;;;;1549234;74;757;-70
2021/07/09 05:05:46;;;;;;;;;;;24.50;51.60;;;;;;1553022;75;727;-69
2021/07/09 05:07:47;;;;;;;;;;;24.50;51.60;;;;;;1556285;76;706;-69
2021/07/09 05:09:49;;;;;;;;;;;24.50;51.60;;;;;;1554905;76;774;-70
2021/07/09 05:11:51;;;;;;;;;;;24.50;51.60;;;;;;1553679;74;1141;-68
2021/07/09 05:13:53;;;;;;;;;;;24.50;51.60;;;;;;1552682;75;730;-72
2021/07/09 05:15:55;;;;;;;;;;;24.50;51.60;;;;;;1559351;75;797;-70
2021/07/09 05:17:57;;;;;;;;;;;24.50;51.60;;;;;;1558974;76;753;-69
2021/07/09 05:19:59;;;;;;;;;;;24.50;51.60;;;;;;1539584;76;812;-72
2021/07/09 05:22:01;;;;;;;;;;;24.50;51.70;;;;;;1556063;75;1246;-71
2021/07/09 05:24:09;;;;;;;;;;;24.50;51.60;;;;;;1557486;75;764;-72
2021/07/09 05:26:09;;;;;;;;;;;24.50;51.60;;;;;;1544530;75;1649;-71
2021/07/09 05:28:11;;;;;;;;;;;24.50;51.60;;;;;;1552858;75;715;-70
2021/07/09 05:30:14;;;;;;;;;;;24.50;51.60;;;;;;1548016;75;691;-72
2021/07/09 05:32:17;;;;;;;;;;;24.50;51.60;;;;;;1553487;75;1086;-70
2021/07/09 05:34:19;;;;;;;;;;;24.50;51.60;;;;;;1557195;75;1934;-70
2021/07/09 05:36:21;;;;;;;;;;;24.50;51.60;;;;;;1561243;75;738;-69
2021/07/09 05:38:23;;;;;;;;;;;24.50;51.60;;;;;;1561129;75;745;-70
2021/07/09 05:40:25;;;;;;;;;;;24.60;51.50;;;;;;1538724;75;756;-71
2021/07/09 05:42:27;;;;;;;;;;;24.50;51.50;;;;;;1542881;76;1122;-70
2021/07/09 05:44:29;;;;;;;;;;;24.50;51.50;;;;;;1539827;75;735;-72
2021/07/09 05:46:31;;;;;;;;;;;24.50;51.60;;;;;;1561230;74;759;-70
2021/07/09 05:48:33;;;;;;;;;;;24.50;51.60;;;;;;1555954;76;796;-65
2021/07/09 05:50:35;;;;;;;;;;;24.50;51.60;;;;;;1552292;75;726;-72
2021/07/09 05:52:37;;;;;;;;;;;24.50;51.50;;;;;;1541906;76;1166;-70
2021/07/09 05:54:39;;;;;;;;;;;24.60;51.50;;;;;;1565334;75;1941;-70
2021/07/09 05:56:40;;;;;;;;;;;24.60;51.50;;;;;;1552986;76;721;-70
2021/07/09 05:58:42;;;;;;;;;;;24.50;51.50;;;;;;1548514;75;672;-70
2021/07/09 06:00:44;;;;;;;;;;;24.60;51.40;;;;;;1554699;75;797;-71
2021/07/09 06:02:46;;;;;;;;;;;24.60;51.40;;;;;;1541679;76;1149;-70
2021/07/09 06:04:48;;;;;;;;;;;24.50;51.40;;;;;;1548136;76;762;-71
2021/07/09 06:06:50;;;;;;;;;;;24.50;51.50;;;;;;1543024;75;798;-69
2021/07/09 06:08:52;;;;;;;;;;;24.50;51.40;;;;;;1555342;75;756;-70
2021/07/09 06:10:54;;;;;;;;;;;24.50;51.40;;;;;;1559527;76;788;-71
2021/07/09 06:12:55;;;;;;;;;;;24.50;51.40;;;;;;1541240;75;1146;-72
2021/07/09 06:14:57;;;;;;;;;;;24.50;51.40;;;;;;1546105;75;1946;-71
2021/07/09 06:16:59;;;;;;;;;;;24.50;51.40;;;;;;1546818;75;731;-72
2021/07/09 06:19:01;;;;;;;;;;;24.50;51.50;;;;;;1561862;74;819;-73
2021/07/09 06:21:03;;;;;;;;;;;24.60;51.50;;;;;;1550236;76;738;-70
2021/07/09 06:23:05;;;;;;;;;;;24.50;51.50;;;;;;1546863;76;1123;-70
2021/07/09 06:25:07;;;;;;;;;;;24.50;51.50;;;;;;1563769;74;729;-69
2021/07/09 06:27:09;;;;;;;;;;;24.60;51.50;;;;;;1554943;75;765;-66
2021/07/09 06:29:11;;;;;;;;;;;24.60;51.50;;;;;;1549990;76;769;-70
2021/07/09 06:31:12;;;;;;;;;;;24.60;51.60;;;;;;1555257;75;694;-71
2021/07/09 06:33:14;;;;;;;;;;;24.70;51.70;;;;;;1553529;75;1113;-73
2021/07/09 06:35:16;;;;;;;;;;;24.70;51.60;;;;;;1557522;75;1942;-66
2021/07/09 06:37:18;;;;;;;;;;;24.70;51.50;;;;;;1557472;75;766;-67
2021/07/09 06:39:20;;;;;;;;;;;24.60;51.20;;;;;;1555639;74;780;-68
2021/07/09 06:41:22;;;;;;;;;;;24.60;51.00;;;;;;1556351;75;777;-67
2021/07/09 06:43:24;;;;;;;;;;;24.60;51.00;;;;;;1551719;76;1189;-67
2021/07/09 06:45:26;;;;;;;;;;;24.50;51.00;;;;;;1559952;74;747;-66
2021/07/09 06:47:28;;;;;;;;;;;24.50;51.00;;;;;;1556426;76;772;-67
2021/07/09 06:49:29;;;;;;;;;;;24.50;50.80;;;;;;1560689;75;796;-67
2021/07/09 06:51:31;;;;;;;;;;;24.50;50.90;;;;;;1559189;75;1150;-70
2021/07/09 06:53:33;;;;;;;;;;;24.40;50.80;;;;;;1577308;74;2108;-63
2021/07/09 06:55:36;;;;;;;;;;;24.50;50.90;;;;;;1569040;74;1950;-63
2021/07/09 06:57:38;;;;;;;;;;;24.40;50.70;;;;;;1572984;74;719;-64
2021/07/09 06:59:42;;;;;;;;;;;24.40;50.70;;;;;;1567886;74;795;-64
2021/07/09 07:01:44;;;;;;;;;;;24.40;50.70;;;;;;1568808;74;2035;-65
2021/07/09 07:03:46;;;;;;;;;;;24.30;50.70;;;;;;1576350;74;1160;-63
2021/07/09 07:05:48;;;;;;;;;;;24.40;50.70;;;;;;1568664;74;723;-63
2021/07/09 07:07:50;;;;;;;;;;;24.30;50.70;;;;;;1572224;74;709;-67
2021/07/09 07:09:51;;;;;;;;;;;24.30;50.70;;;;;;1573399;74;754;-63
2021/07/09 07:11:53;;;;;;;;;;;24.20;50.60;;;;;;1574565;74;802;-63
2021/07/09 07:13:55;;;;;;;;;;;24.30;50.70;;;;;;1569117;74;1154;-64
2021/07/09 07:15:58;;;;;;;;;;;24.30;50.70;;;;;;1571470;74;1927;-63
2021/07/09 07:18:02;;;;;;;;;;;24.30;50.50;;;;;;1575669;74;784;-65
2021/07/09 07:20:04;;;;;;;;;;;24.30;49.80;;;;;;1569723;74;1019;-63
2021/07/09 07:22:06;;;;;;;;;;;24.20;49.80;;;;;;1567710;74;1118;-65
2021/07/09 07:24:08;;;;;;;;;;;24.20;49.60;;;;;;1565206;74;809;-65
2021/07/09 07:26:10;;;;;;;;;;;24.20;49.60;;;;;;1564003;74;725;-65
2021/07/09 07:28:13;;;;;;;;;;;24.10;49.50;;;;;;1572418;74;722;-67
2021/07/09 07:30:15;;;;;;;;;;;24.10;49.40;;;;;;1564518;74;693;-66
2021/07/09 07:32:17;;;;;;;;;;;24.00;49.40;;;;;;1565210;74;1165;-66
2021/07/09 07:34:19;;;;;;;;;;;24.00;49.50;;;;;;1563711;74;720;-64
2021/07/09 07:36:21;;;;;;;;;;;24.00;49.70;;;;;;1565221;74;1947;-65
2021/07/09 07:38:23;;;;;;;;;;;24.00;49.40;;;;;;1567522;74;701;-65
2021/07/09 07:40:25;;;;;;;;;;;23.90;49.50;;;;;;1574476;74;656;-64
2021/07/09 07:42:27;;;;;;;;;;;23.90;49.30;;;;;;1571021;74;1202;-65
2021/07/09 07:44:29;;;;;;;;;;;23.80;49.60;;;;;;1574016;74;714;-66
2021/07/09 07:46:30;;;;;;;;;;;23.70;49.80;;;;;;1574851;74;743;-64
2021/07/09 07:48:32;;;;;;;;;;;23.80;50.00;;;;;;1568713;74;839;-64
2021/07/09 07:50:34;;;;;;;;;;;23.80;49.90;;;;;;1571223;74;714;-64
2021/07/09 07:52:36;;;;;;;;;;;23.80;49.80;;;;;;1577239;74;1150;-64
2021/07/09 07:54:38;;;;;;;;;;;23.80;49.80;;;;;;1575006;74;789;-64
2021/07/09 07:56:41;;;;;;;;;;;23.80;49.80;;;;;;1572852;74;1933;-65
2021/07/09 07:58:43;;;;;;;;;;;23.80;49.80;;;;;;1570043;74;779;-69
2021/07/09 08:00:44;;;;;;;;;;;23.70;49.90;;;;;;1565950;74;707;-65
2021/07/09 08:02:46;;;;;;;;;;;23.70;49.90;;;;;;1563880;74;1154;-65
2021/07/09 08:04:49;;;;;;;;;;;23.80;49.90;;;;;;1570235;74;768;-65
2021/07/09 08:06:50;;;;;;;;;;;23.80;50.00;;;;;;1577877;74;782;-64
2021/07/09 08:08:52;;;;;;;;;;;23.80;50.00;;;;;;1567173;74;779;-65
2021/07/09 08:10:54;;;;;;;;;;;23.80;50.10;;;;;;1567533;74;734;-68
2021/07/09 08:12:56;;;;;;;;;;;23.70;50.00;;;;;;1570648;74;1070;-65
2021/07/09 08:14:58;;;;;;;;;;;23.80;50.00;;;;;;1569859;74;728;-65
2021/07/09 08:17:00;;;;;;;;;;;23.70;50.10;;;;;;1577893;74;1930;-67
2021/07/09 08:19:02;;;;;;;;;;;23.80;50.10;;;;;;1576157;74;713;-65
2021/07/09 08:21:04;;;;;;;;;;;23.70;50.10;;;;;;1565064;74;796;-65
2021/07/09 08:23:06;;;;;;;;;;;23.80;50.10;;;;;;1561977;74;1146;-65
2021/07/09 08:25:08;;;;;;;;;;;23.70;49.90;;;;;;1565547;74;677;-67
2021/07/09 08:27:10;;;;;;;;;;;23.80;49.70;;;;;;1573604;73;732;-65
2021/07/09 08:29:12;;;;;;;;;;;23.80;49.80;;;;;;1569368;74;706;-65
2021/07/09 08:31:14;;;;;;;;;;;23.80;49.80;;;;;;1574129;74;801;-65
2021/07/09 08:33:16;;;;;;;;;;;23.70;50.00;;;;;;1573328;74;1158;-65
2021/07/09 08:35:18;;;;;;;;;;;23.80;50.00;;;;;;1574433;74;1930;-67
2021/07/09 08:37:20;;;;;;;;;;;23.80;49.80;;;;;;1569161;74;723;-65
2021/07/09 08:39:22;;;;;;;;;;;23.80;49.80;;;;;;1571046;74;1056;-66
2021/07/09 08:41:24;;;;;;;;;;;23.80;49.80;;;;;;1577915;74;734;-63
2021/07/09 08:43:25;;;;;;;;;;;23.70;49.80;;;;;;1576079;74;1142;-67
2021/07/09 08:45:27;;;;;;;;;;;23.80;50.00;;;;;;1572748;74;721;-66
2021/07/09 08:47:29;;;;;;;;;;;23.70;49.90;;;;;;1576663;74;777;-65
2021/07/09 08:49:31;;;;;;;;;;;23.70;50.10;;;;;;1571826;74;734;-66
2021/07/09 08:51:34;;;;;;;;;;;23.60;50.00;;;;;;1573006;74;666;-66
2021/07/09 08:53:36;;;;;;;;;;;23.80;50.10;;;;;;1567213;74;1117;-63
2021/07/09 08:55:38;;;;;;;;;;;23.70;50.00;;;;;;1575966;74;1930;-67
2021/07/09 08:57:43;;;;;;;;;;;23.70;50.10;;;;;;1574680;74;826;-69
2021/07/09 08:59:45;;;;;;;;;;;23.70;50.00;;;;;;1570848;74;746;-67
2021/07/09 09:01:53;;;;;;;;;;;23.70;50.10;;;;;;1570801;74;751;-66
2021/07/09 09:04:04;;;;;;;;;;;23.60;50.00;;;;;;1567864;74;1154;-69
2021/07/09 09:06:06;;;;;;;;;;;23.60;50.10;;;;;;1574622;74;775;-66
2021/07/09 09:08:08;;;;;;;;;;;23.60;50.30;;;;;;1550889;75;802;-66
2021/07/09 09:10:10;;;;;;;;;;;23.60;50.40;;;;;;1568108;74;815;-68
2021/07/09 09:12:15;;;;;;;;;;;23.60;50.40;;;;;;1571198;74;1262;-69
2021/07/09 09:14:23;;;;;;;;;;;23.60;50.40;;;;;;1576804;74;719;-64
2021/07/09 09:16:25;;;;;;;;;;;23.70;50.60;;;;;;1569952;74;1934;-64
2021/07/09 09:18:29;;;;;;;;;;;23.60;50.50;;;;;;1562135;75;1269;-66
2021/07/09 09:20:31;;;;;;;;;;;23.60;50.50;;;;;;1564733;74;690;-65
2021/07/09 09:22:38;;;;;;;;;;;23.50;50.60;;;;;;1569947;74;1121;-68
2021/07/09 09:24:36;;;;;;;;;;;23.60;50.70;;;;;;1567053;74;1539;-67
2021/07/09 09:26:42;;;;;;;;;;;23.50;50.70;;;;;;1570814;74;669;-66
2021/07/09 09:28:44;;;;;;;;;;;23.60;50.60;;;;;;1573180;73;578;-66
2021/07/09 09:30:46;;;;;;;;;;;23.60;50.60;;;;;;1566408;74;691;-66
2021/07/09 09:32:48;;;;;;;;;;;23.60;50.60;;;;;;1550233;75;1517;-65
2021/07/09 09:34:50;;;;;;;;;;;23.70;50.70;;;;;;1562573;74;758;-67
2021/07/09 09:37:01;;;;;;;;;;;23.60;50.60;;;;;;1541350;75;1932;-65
2021/07/09 09:39:03;;;;;;;;;;;23.60;50.60;;;;;;1563206;74;724;-65
2021/07/09 09:41:05;;;;;;;;;;;23.60;50.70;;;;;;1551114;75;718;-64
2021/07/09 09:43:11;;;;;;;;;;;23.50;50.70;;;;;;1548730;75;1186;-67
2021/07/09 09:45:13;;;;;;;;;;;23.60;50.70;;;;;;1560177;74;783;-65
2021/07/09 09:47:16;;;;;;;;;;;23.60;50.70;;;;;;1539797;75;977;-67
2021/07/09 09:49:18;;;;;;;;;;;23.60;50.80;;;;;;1532023;75;711;-65
2021/07/09 09:51:27;;;;;;;;;;;23.60;50.90;;;;;;1570319;74;811;-65
2021/07/09 09:53:33;;;;;;;;;;;23.60;50.80;;;;;;1567743;74;1098;-66
2021/07/09 09:55:35;;;;;;;;;;;23.60;50.90;;;;;;1559366;74;743;-68
2021/07/09 09:57:37;;;;;;;;;;;23.50;51.00;;;;;;1567769;74;1915;-66
2021/07/09 09:59:39;;;;;;;;;;;23.60;51.10;;;;;;1558512;74;775;-69
2021/07/09 10:01:51;;;;;;;;;;;23.50;51.10;;;;;;1548174;75;1352;-69
2021/07/09 10:03:53;;;;;;;;;;;23.60;51.20;;;;;;1550889;76;1084;-72
2021/07/09 10:05:55;;;;;;;;;;;23.60;51.20;;;;;;1547094;74;780;-66
2021/07/09 10:07:57;;;;;;;;;;;23.60;51.20;;;;;;1558258;75;696;-62
2021/07/09 10:09:59;;;;;;;;;;;23.70;51.40;;;;;;1555342;74;793;-66
2021/07/09 10:12:03;;;;;;;;;;;23.60;51.30;;;;;;1554969;75;1139;-66
2021/07/09 10:14:04;;;;;;;;;;;23.60;51.30;;;;;;1550909;74;997;-66
2021/07/09 10:16:06;;;;;;;;;;;23.70;51.30;;;;;;1549702;74;1946;-66
2021/07/09 10:18:12;;;;;;;;;;;23.60;51.00;;;;;;1564994;75;712;-67
2021/07/09 10:20:13;;;;;;;;;;;23.60;51.00;;;;;;1550253;74;719;-69
2021/07/09 10:22:15;;;;;;;;;;;23.60;51.00;;;;;;1565292;74;1148;-67
2021/07/09 10:24:17;;;;;;;;;;;23.60;51.10;;;;;;1572376;74;730;-68
2021/07/09 10:26:19;;;;;;;;;;;23.70;51.40;;;;;;1567697;74;688;-68
2021/07/09 10:28:21;;;;;;;;;;;23.60;51.50;;;;;;1580057;74;772;-68
2021/07/09 10:30:25;;;;;;;;;;;23.60;51.60;;;;;;1560240;74;704;-69
2021/07/09 10:32:36;;;;;;;;;;;23.60;51.70;;;;;;1572900;74;1157;-70
2021/07/09 10:34:44;;;;;;;;;;;23.70;51.80;;;;;;1557511;74;731;-68
2021/07/09 10:36:48;;;;;;;;;;;23.70;51.90;;;;;;1541343;75;1935;-71
2021/07/09 10:38:50;;;;;;;;;;;23.70;51.90;;;;;;1542450;75;1098;-71
2021/07/09 10:40:51;;;;;;;;;;;23.80;52.00;;;;;;1535408;76;1061;-71
2021/07/09 10:42:53;;;;;;;;;;;23.80;52.10;;;;;;1560197;74;1110;-67
2021/07/09 10:44:56;;;;;;;;;;;23.70;52.10;;;;;;1546040;75;687;-72
2021/07/09 10:46:59;;;;;;;;;;;23.80;52.10;;;;;;1534003;76;727;-71
2021/07/09 10:49:01;;;;;;;;;;;23.70;52.10;;;;;;1547134;74;1592;-69
2021/07/09 10:51:04;;;;;;;;;;;23.80;52.00;;;;;;1555916;74;709;-69
2021/07/09 10:53:14;;;;;;;;;;;23.80;51.80;;;;;;1544724;74;1143;-71
2021/07/09 10:55:27;;;;;;;;;;;23.70;52.00;;;;;;1559508;74;785;-65
2021/07/09 10:57:29;;;;;;;;;;;23.70;52.10;;;;;;1567968;74;1911;-63
2021/07/09 10:59:31;;;;;;;;;;;23.70;52.30;;;;;;1529891;76;788;-70
2021/07/09 11:01:35;;;;;;;;;;;23.70;52.60;;;;;;1576247;74;761;-65
2021/07/09 11:03:39;;;;;;;;;;;23.70;52.50;;;;;;1564848;74;1127;-66
2021/07/09 11:05:46;;;;;;;;;;;23.80;52.50;;;;;;1537455;75;732;-70
2021/07/09 11:07:48;;;;;;;;;;;23.80;52.50;;;;;;1537864;75;756;-68
2021/07/09 11:09:51;;;;;;;;;;;23.90;52.40;;;;;;1567010;74;727;-68
2021/07/09 11:11:53;;;;;;;;;;;23.80;52.40;;;;;;1526780;76;689;-68
2021/07/09 11:13:57;;;;;;;;;;;23.80;52.40;;;;;;1533313;75;1117;-67
2021/07/09 11:15:59;;;;;;;;;;;23.80;52.20;;;;;;1540576;75;710;-67
2021/07/09 11:18:02;;;;;;;;;;;23.80;52.20;;;;;;1563392;74;1931;-66
2021/07/09 11:20:14;;;;;;;;;;;23.80;52.10;;;;;;1559997;74;1075;-68
2021/07/09 11:22:16;;;;;;;;;;;23.80;52.10;;;;;;1563526;74;1137;-66
2021/07/09 11:24:20;;;;;;;;;;;23.90;52.20;;;;;;1543360;75;855;-68
2021/07/09 11:26:22;;;;;;;;;;;23.90;52.30;;;;;;1566088;74;2328;-68
2021/07/09 11:28:29;;;;;;;;;;;23.90;52.30;;;;;;1580882;74;774;-69
2021/07/09 11:30:31;;;;;;;;;;;23.80;52.10;;;;;;1537625;75;727;-68
2021/07/09 11:32:33;;;;;;;;;;;23.90;52.30;;;;;;1548877;74;1150;-68
2021/07/09 11:34:36;;;;;;;;;;;23.90;52.20;;;;;;1548751;75;887;-68
2021/07/09 11:36:46;;;;;;;;;;;23.90;52.10;;;;;;1550917;75;1930;-68
2021/07/09 11:39:06;;;;;;;;;;;23.90;52.10;;;;;;1540605;75;694;-69
2021/07/09 11:41:08;;;;;;;;;;;23.90;52.10;;;;;;1547581;75;754;-70
2021/07/09 11:43:10;;;;;;;;;;;23.90;52.10;;;;;;1532130;75;1097;-69
2021/07/09 11:45:13;;;;;;;;;;;23.80;52.00;;;;;;1560389;74;772;-69
2021/07/09 11:47:15;;;;;;;;;;;23.90;52.00;;;;;;1539953;75;736;-69
2021/07/09 11:49:21;;;;;;;;;;;23.90;51.90;;;;;;1562820;74;727;-69
2021/07/09 11:51:23;;;;;;;;;;;23.90;51.80;;;;;;1564775;74;666;-70
2021/07/09 11:53:25;;;;;;;;;;;23.90;51.80;;;;;;1564911;74;1129;-69
2021/07/09 11:55:28;;;;;;;;;;;23.90;51.80;;;;;;1572005;74;771;-69
2021/07/09 11:57:31;;;;;;;;;;;24.00;51.90;;;;;;1571199;74;1908;-66
2021/07/09 11:59:33;;;;;;;;;;;24.00;51.80;;;;;;1568525;74;731;-70
2021/07/09 12:01:34;;;;;;;;;;;23.90;51.90;;;;;;1542716;75;724;-70
2021/07/09 12:03:36;;;;;;;;;;;23.90;51.90;;;;;;1540319;75;1130;-69
2021/07/09 12:05:38;;;;;;;;;;;24.00;51.80;;;;;;1548703;75;1136;-69
2021/07/09 12:07:40;;;;;;;;;;;23.90;51.80;;;;;;1556063;75;795;-66
2021/07/09 12:09:45;;;;;;;;;;;24.00;51.80;;;;;;1558168;74;793;-69